createdAt,value
2018-07-27T00:00:34.234Z,63.97
2018-07-27T00:01:34.334Z,63.94
2018-07-27T00:02:34.368Z,63.97
2018-07-27T00:03:34.385Z,63.94
2018-07-27T00:04:34.327Z,63.93
2018-07-27T00:05:34.137Z,63.94
2018-07-27T00:06:34.407Z,63.99
2018-07-27T00:07:34.353Z,63.95
2018-07-27T00:08:34.321Z,63.92
2018-07-27T00:09:34.379Z,63.93
2018-07-27T00:10:34.266Z,63.97
2018-07-27T00:11:34.268Z,63.93
2018-07-27T00:12:34.163Z,63.92
2018-07-27T00:13:34.407Z,63.97
2018-07-27T00:14:34.199Z,63.95
2018-07-27T00:15:34.289Z,63.99
2018-07-27T00:16:34.416Z,63.99
2018-07-27T00:17:34.371Z,63.93
2018-07-27T00:18:34.287Z,63.93
2018-07-27T00:19:34.149Z,63.97
2018-07-27T00:20:34.399Z,63.94
2018-07-27T00:21:34.458Z,63.97
2018-07-27T00:22:34.253Z,63.95
2018-07-27T00:23:34.193Z,63.94
2018-07-27T00:24:34.250Z,63.99
2018-07-27T00:25:34.319Z,63.98
2018-07-27T00:26:34.347Z,63.98
2018-07-27T00:27:34.190Z,63.96
2018-07-27T00:28:34.349Z,63.96
2018-07-27T00:29:34.267Z,63.95
2018-07-27T00:30:34.264Z,63.95
2018-07-27T00:31:34.419Z,63.97
2018-07-27T00:32:34.267Z,63.96
2018-07-27T00:33:34.401Z,63.96
2018-07-27T00:34:34.262Z,63.97
2018-07-27T00:35:34.404Z,63.92
2018-07-27T00:36:34.335Z,63.96
2018-07-27T00:37:34.288Z,63.93
2018-07-27T00:38:34.217Z,63.94
2018-07-27T00:39:34.498Z,63.97
2018-07-27T00:40:34.275Z,63.96
2018-07-27T00:41:34.179Z,63.92
2018-07-27T00:42:34.395Z,63.96
2018-07-27T00:43:34.410Z,63.96
2018-07-27T00:44:34.679Z,63.94
2018-07-27T00:45:34.095Z,63.93
2018-07-27T00:46:34.204Z,63.93
2018-07-27T00:47:34.137Z,63.94
2018-07-27T00:48:34.451Z,63.94
2018-07-27T00:49:34.327Z,63.91
2018-07-27T00:50:34.114Z,63.95
2018-07-27T00:51:34.248Z,63.95
2018-07-27T00:52:34.393Z,63.96
2018-07-27T00:53:34.293Z,63.95
2018-07-27T00:54:34.276Z,63.94
2018-07-27T00:55:34.172Z,63.92
2018-07-27T00:56:34.198Z,63.9
2018-07-27T00:57:34.281Z,63.94
2018-07-27T00:58:34.174Z,63.96
2018-07-27T00:59:34.137Z,63.96
2018-07-27T01:00:34.259Z,63.94
2018-07-27T01:01:34.393Z,63.93
2018-07-27T01:02:34.223Z,63.94
2018-07-27T01:03:34.152Z,63.97
2018-07-27T01:04:34.397Z,63.94
2018-07-27T01:05:34.269Z,63.94
2018-07-27T01:06:34.245Z,63.95
2018-07-27T01:07:34.338Z,63.96
2018-07-27T01:08:44.207Z,63.97
2018-07-27T01:09:34.944Z,63.96
2018-07-27T01:10:34.378Z,63.97
2018-07-27T01:11:34.468Z,63.96
2018-07-27T01:12:34.337Z,63.94
2018-07-27T01:13:34.386Z,63.94
2018-07-27T01:14:34.307Z,63.94
2018-07-27T01:15:34.141Z,63.97
2018-07-27T01:16:34.312Z,63.97
2018-07-27T01:17:34.284Z,63.97
2018-07-27T01:18:34.145Z,63.94
2018-07-27T01:19:34.635Z,63.95
2018-07-27T01:20:34.202Z,63.97
2018-07-27T01:21:34.371Z,63.94
2018-07-27T01:22:34.468Z,63.92
2018-07-27T01:23:34.368Z,63.92
2018-07-27T01:24:44.311Z,63.94
2018-07-27T01:25:34.384Z,63.95
2018-07-27T01:26:34.214Z,63.94
2018-07-27T01:27:34.352Z,63.96
2018-07-27T01:28:34.267Z,63.97
2018-07-27T01:29:34.467Z,63.91
2018-07-27T01:30:34.427Z,63.94
2018-07-27T01:31:34.329Z,64
2018-07-27T01:32:34.270Z,63.92
2018-07-27T01:33:34.302Z,63.95
2018-07-27T01:34:34.128Z,63.95
2018-07-27T01:35:34.347Z,63.99
2018-07-27T01:36:34.298Z,63.97
2018-07-27T01:37:34.375Z,63.94
2018-07-27T01:38:34.373Z,63.93
2018-07-27T01:39:34.377Z,63.99
2018-07-27T01:40:34.441Z,63.99
2018-07-27T01:41:34.346Z,63.92
2018-07-27T01:42:34.238Z,63.99
2018-07-27T01:43:34.229Z,63.97
2018-07-27T01:44:34.339Z,63.97
2018-07-27T01:45:34.273Z,63.93
2018-07-27T01:46:34.216Z,63.94
2018-07-27T01:47:34.324Z,63.95
2018-07-27T01:48:34.238Z,63.93
2018-07-27T01:49:34.236Z,63.96
2018-07-27T01:50:34.169Z,63.98
2018-07-27T01:51:34.283Z,63.94
2018-07-27T01:52:34.124Z,63.94
2018-07-27T01:53:34.197Z,63.95
2018-07-27T01:54:34.396Z,63.95
2018-07-27T01:55:34.210Z,63.98
2018-07-27T01:56:34.207Z,63.92
2018-07-27T01:57:34.357Z,63.94
2018-07-27T01:58:34.383Z,63.97
2018-07-27T01:59:34.229Z,63.98
2018-07-27T02:00:34.348Z,63.96
2018-07-27T02:01:34.191Z,63.96
2018-07-27T02:02:34.201Z,63.92
2018-07-27T02:03:34.443Z,63.94
2018-07-27T02:04:34.320Z,63.97
2018-07-27T02:05:34.266Z,63.96
2018-07-27T02:06:34.189Z,63.94
2018-07-27T02:07:34.288Z,63.94
2018-07-27T02:08:34.128Z,63.95
2018-07-27T02:09:34.271Z,63.94
2018-07-27T02:10:33.998Z,63.97
2018-07-27T02:11:34.229Z,63.94
2018-07-27T02:12:34.725Z,63.95
2018-07-27T02:13:34.299Z,63.94
2018-07-27T02:14:34.147Z,63.93
2018-07-27T02:15:34.251Z,63.94
2018-07-27T02:16:34.261Z,63.93
2018-07-27T02:17:34.179Z,63.92
2018-07-27T02:18:34.279Z,64
2018-07-27T02:19:34.108Z,63.94
2018-07-27T02:20:34.201Z,63.91
2018-07-27T02:21:34.229Z,63.97
2018-07-27T02:22:34.264Z,63.93
2018-07-27T02:23:35.142Z,63.95
2018-07-27T02:24:34.413Z,63.95
2018-07-27T02:25:34.177Z,63.96
2018-07-27T02:26:34.122Z,63.98
2018-07-27T02:27:34.399Z,63.95
2018-07-27T02:28:34.144Z,64.01
2018-07-27T02:29:34.146Z,63.97
2018-07-27T02:30:34.245Z,63.98
2018-07-27T02:31:34.532Z,64.01
2018-07-27T02:32:34.352Z,63.94
2018-07-27T02:33:34.425Z,63.96
2018-07-27T02:34:34.188Z,63.95
2018-07-27T02:35:34.342Z,63.97
2018-07-27T02:36:34.627Z,63.98
2018-07-27T02:37:34.131Z,63.95
2018-07-27T02:38:34.315Z,63.96
2018-07-27T02:39:34.190Z,63.97
2018-07-27T02:40:34.184Z,63.96
2018-07-27T02:41:34.727Z,63.94
2018-07-27T02:42:34.294Z,63.96
2018-07-27T02:43:34.226Z,63.95
2018-07-27T02:44:34.575Z,63.97
2018-07-27T02:45:34.355Z,63.94
2018-07-27T02:46:34.262Z,63.98
2018-07-27T02:47:34.537Z,63.96
2018-07-27T02:48:34.584Z,63.97
2018-07-27T02:49:34.249Z,63.95
2018-07-27T02:50:34.312Z,63.96
2018-07-27T02:51:34.156Z,63.97
2018-07-27T02:52:34.488Z,63.95
2018-07-27T02:53:34.183Z,63.93
2018-07-27T02:54:34.392Z,63.94
2018-07-27T02:55:34.078Z,63.94
2018-07-27T02:56:34.287Z,63.97
2018-07-27T02:57:34.299Z,63.97
2018-07-27T02:58:34.439Z,63.97
2018-07-27T02:59:34.316Z,63.93
2018-07-27T03:00:34.156Z,63.94
2018-07-27T03:01:34.157Z,63.97
2018-07-27T03:02:34.260Z,63.95
2018-07-27T03:03:34.442Z,63.96
2018-07-27T03:04:34.206Z,63.96
2018-07-27T03:05:34.247Z,63.91
2018-07-27T03:06:34.391Z,64.03
2018-07-27T03:07:34.308Z,63.98
2018-07-27T03:08:34.135Z,63.92
2018-07-27T03:09:35.153Z,63.97
2018-07-27T03:10:34.256Z,63.96
2018-07-27T03:11:34.231Z,63.96
2018-07-27T03:12:34.230Z,63.94
2018-07-27T03:13:34.272Z,63.94
2018-07-27T03:14:34.316Z,63.97
2018-07-27T03:15:34.320Z,63.92
2018-07-27T03:16:34.404Z,63.94
2018-07-27T03:17:34.587Z,63.98
2018-07-27T03:18:34.268Z,63.94
2018-07-27T03:19:34.739Z,63.97
2018-07-27T03:20:34.151Z,63.96
2018-07-27T03:21:34.152Z,63.94
2018-07-27T03:22:34.104Z,63.93
2018-07-27T03:23:34.246Z,63.95
2018-07-27T03:24:34.288Z,63.96
2018-07-27T03:25:34.335Z,63.97
2018-07-27T03:26:34.083Z,63.94
2018-07-27T03:27:34.302Z,63.96
2018-07-27T03:28:34.232Z,63.98
2018-07-27T03:29:34.134Z,63.95
2018-07-27T03:30:34.199Z,63.95
2018-07-27T03:31:34.187Z,63.96
2018-07-27T03:32:34.300Z,63.96
2018-07-27T03:33:34.296Z,63.99
2018-07-27T03:34:34.108Z,63.95
2018-07-27T03:35:34.407Z,63.95
2018-07-27T03:36:34.233Z,63.94
2018-07-27T03:37:34.231Z,64
2018-07-27T03:38:34.325Z,63.95
2018-07-27T03:39:34.199Z,63.94
2018-07-27T03:40:34.170Z,63.98
2018-07-27T03:41:34.233Z,63.94
2018-07-27T03:42:34.236Z,63.94
2018-07-27T03:43:34.349Z,63.94
2018-07-27T03:44:34.493Z,63.93
2018-07-27T03:45:34.215Z,63.98
2018-07-27T03:46:34.352Z,63.96
2018-07-27T03:47:34.228Z,63.93
2018-07-27T03:48:34.459Z,63.96
2018-07-27T03:49:34.062Z,63.97
2018-07-27T03:50:34.414Z,63.94
2018-07-27T03:51:34.174Z,63.96
2018-07-27T03:52:34.253Z,63.94
2018-07-27T03:53:34.151Z,63.97
2018-07-27T03:54:34.306Z,63.98
2018-07-27T03:55:34.584Z,63.93
2018-07-27T03:56:34.309Z,63.89
2018-07-27T03:57:34.418Z,63.92
2018-07-27T03:58:34.072Z,63.92
2018-07-27T03:59:34.284Z,63.97
2018-07-27T04:00:34.212Z,63.9
2018-07-27T04:01:34.273Z,63.92
2018-07-27T04:02:34.133Z,63.9
2018-07-27T04:03:34.362Z,63.93
2018-07-27T04:04:34.202Z,63.96
2018-07-27T04:05:34.353Z,63.93
2018-07-27T04:06:34.106Z,63.94
2018-07-27T04:07:34.082Z,63.9
2018-07-27T04:08:34.557Z,63.89
2018-07-27T04:09:34.225Z,63.92
2018-07-27T04:10:34.405Z,63.94
2018-07-27T04:11:34.317Z,63.93
2018-07-27T04:12:34.451Z,63.93
2018-07-27T04:13:34.248Z,63.92
2018-07-27T04:14:34.258Z,63.96
2018-07-27T04:15:34.421Z,63.96
2018-07-27T04:16:34.066Z,63.94
2018-07-27T04:17:34.559Z,63.9
2018-07-27T04:18:34.213Z,63.92
2018-07-27T04:19:34.513Z,63.95
2018-07-27T04:20:34.352Z,63.88
2018-07-27T04:21:34.159Z,63.93
2018-07-27T04:22:34.760Z,63.91
2018-07-27T04:23:34.125Z,63.91
2018-07-27T04:24:34.206Z,63.9
2018-07-27T04:25:34.112Z,63.93
2018-07-27T04:26:34.111Z,63.93
2018-07-27T04:27:34.211Z,63.93
2018-07-27T04:28:34.308Z,63.96
2018-07-27T04:29:34.355Z,63.9
2018-07-27T04:30:34.267Z,63.89
2018-07-27T04:31:34.279Z,63.93
2018-07-27T04:32:34.295Z,63.87
2018-07-27T04:33:34.177Z,63.93
2018-07-27T04:34:34.204Z,63.92
2018-07-27T04:35:34.459Z,63.93
2018-07-27T04:36:34.210Z,63.96
2018-07-27T04:37:34.329Z,63.9
2018-07-27T04:38:34.201Z,63.93
2018-07-27T04:39:34.165Z,63.9
2018-07-27T04:40:34.183Z,63.93
2018-07-27T04:41:34.144Z,63.9
2018-07-27T04:42:34.114Z,63.92
2018-07-27T04:43:34.024Z,63.92
2018-07-27T04:44:34.105Z,63.9
2018-07-27T04:45:34.262Z,63.91
2018-07-27T04:46:34.358Z,63.9
2018-07-27T04:47:34.284Z,63.89
2018-07-27T04:48:34.193Z,63.94
2018-07-27T04:49:34.125Z,63.92
2018-07-27T04:50:34.290Z,63.91
2018-07-27T04:51:34.149Z,63.9
2018-07-27T04:52:34.104Z,63.89
2018-07-27T04:53:34.243Z,63.92
2018-07-27T04:54:34.194Z,63.9
2018-07-27T04:55:34.112Z,63.9
2018-07-27T04:56:35.589Z,63.92
2018-07-27T04:57:34.157Z,63.92
2018-07-27T04:58:34.057Z,63.91
2018-07-27T04:59:34.298Z,63.95
2018-07-27T05:00:34.102Z,62.65
2018-07-27T05:01:34.081Z,62.75
2018-07-27T05:02:34.236Z,62.62
2018-07-27T05:03:34.197Z,62.8
2018-07-27T05:04:34.653Z,62.79
2018-07-27T05:05:34.104Z,62.87
2018-07-27T05:06:34.228Z,62.76
2018-07-27T05:07:34.367Z,62.72
2018-07-27T05:08:34.584Z,62.75
2018-07-27T05:09:34.141Z,62.37
2018-07-27T05:10:34.100Z,62.61
2018-07-27T05:11:34.281Z,62.55
2018-07-27T05:12:34.187Z,62.93
2018-07-27T05:13:34.605Z,63.03
2018-07-27T05:14:34.298Z,63.22
2018-07-27T05:15:34.236Z,63.21
2018-07-27T05:16:34.104Z,63.07
2018-07-27T05:17:34.455Z,63.16
2018-07-27T05:18:34.208Z,63.13
2018-07-27T05:19:34.079Z,63.27
2018-07-27T05:20:34.319Z,63.09
2018-07-27T05:21:34.203Z,63.16
2018-07-27T05:22:34.229Z,63.26
2018-07-27T05:23:34.071Z,63.48
2018-07-27T05:24:34.714Z,63.65
2018-07-27T05:25:34.277Z,63.51
2018-07-27T05:26:34.466Z,63.5
2018-07-27T05:27:34.216Z,63.27
2018-07-27T05:28:34.019Z,63.2
2018-07-27T05:29:34.163Z,63.16
2018-07-27T05:30:34.205Z,63.17
2018-07-27T05:31:34.533Z,63.16
2018-07-27T05:32:34.079Z,63.21
2018-07-27T05:33:34.310Z,63.28
2018-07-27T05:34:34.122Z,63.32
2018-07-27T05:35:34.120Z,62.98
2018-07-27T05:36:34.630Z,62.59
2018-07-27T05:37:34.215Z,61.88
2018-07-27T05:38:34.195Z,61.54
2018-07-27T05:39:34.122Z,61.41
2018-07-27T05:40:34.284Z,61.18
2018-07-27T05:41:34.215Z,61.51
2018-07-27T05:42:34.197Z,61.34
2018-07-27T05:43:34.165Z,60.25
2018-07-27T05:44:34.155Z,60.1
2018-07-27T05:45:34.324Z,60.51
2018-07-27T05:46:34.058Z,59.67
2018-07-27T05:47:34.222Z,60.27
2018-07-27T05:48:34.854Z,59.66
2018-07-27T05:49:34.228Z,59.92
2018-07-27T05:50:34.335Z,60.29
2018-07-27T05:51:34.235Z,60.64
2018-07-27T05:52:34.264Z,60.79
2018-07-27T05:53:34.305Z,60.23
2018-07-27T05:54:34.104Z,61.1
2018-07-27T05:55:57.544Z,62.69
2018-07-27T05:56:34.053Z,62.6
2018-07-27T05:57:34.124Z,62.6
2018-07-27T05:58:34.059Z,62.66
2018-07-27T05:59:34.159Z,63.12
2018-07-27T06:00:34.211Z,62.95
2018-07-27T06:01:34.028Z,63.41
2018-07-27T06:02:34.672Z,63.39
2018-07-27T06:03:34.066Z,63.55
2018-07-27T06:04:34.143Z,63.97
2018-07-27T06:05:34.158Z,63.56
2018-07-27T06:06:34.167Z,63.92
2018-07-27T06:07:34.077Z,64.32
2018-07-27T06:08:34.148Z,64.01
2018-07-27T06:09:34.043Z,63.91
2018-07-27T06:10:34.269Z,63.48
2018-07-27T06:11:34.241Z,63.47
2018-07-27T06:12:34.384Z,63.39
2018-07-27T06:13:34.201Z,63.24
2018-07-27T06:14:35.269Z,62.87
2018-07-27T06:15:34.170Z,62.95
2018-07-27T06:16:34.055Z,63.04
2018-07-27T06:17:34.090Z,63.06
2018-07-27T06:18:34.288Z,63
2018-07-27T06:19:34.187Z,62.95
2018-07-27T06:20:34.099Z,62.99
2018-07-27T06:21:34.119Z,62.99
2018-07-27T06:22:34.224Z,63
2018-07-27T06:23:34.361Z,63.01
2018-07-27T06:24:34.081Z,63.01
2018-07-27T06:25:34.663Z,63.16
2018-07-27T06:26:34.720Z,63.12
2018-07-27T06:27:34.324Z,63.34
2018-07-27T06:28:34.036Z,63.2
2018-07-27T06:29:34.162Z,63.16
2018-07-27T06:30:34.215Z,63.23
2018-07-27T06:31:34.154Z,63.19
2018-07-27T06:32:35.132Z,63.09
2018-07-27T06:33:34.272Z,63.08
2018-07-27T06:34:34.098Z,63.12
2018-07-27T06:35:34.159Z,63.03
2018-07-27T06:36:34.399Z,63.04
2018-07-27T06:37:34.109Z,63.02
2018-07-27T06:38:34.081Z,63
2018-07-27T06:39:34.273Z,63.04
2018-07-27T06:40:34.177Z,62.99
2018-07-27T06:41:34.212Z,63.02
2018-07-27T06:42:34.169Z,63.02
2018-07-27T06:43:33.993Z,63.02
2018-07-27T06:44:34.440Z,63.01
2018-07-27T06:45:34.177Z,62.98
2018-07-27T06:46:34.155Z,63
2018-07-27T06:47:34.198Z,63
2018-07-27T06:48:34.201Z,62.99
2018-07-27T06:49:34.136Z,63.01
2018-07-27T06:50:34.267Z,62.98
2018-07-27T06:51:34.228Z,62.97
2018-07-27T06:52:35.397Z,63.01
2018-07-27T06:53:34.411Z,63.04
2018-07-27T06:54:34.055Z,63.02
2018-07-27T06:55:34.322Z,63.12
2018-07-27T06:56:35.447Z,63.2
2018-07-27T06:57:34.268Z,63.28
2018-07-27T06:58:34.232Z,63.23
2018-07-27T06:59:34.104Z,63.13
2018-07-27T07:00:34.139Z,63.12
2018-07-27T07:01:34.009Z,63.16
2018-07-27T07:02:34.724Z,63.12
2018-07-27T07:03:34.903Z,63.12
2018-07-27T07:04:34.131Z,63.11
2018-07-27T07:05:34.469Z,63.08
2018-07-27T07:06:34.130Z,63.1
2018-07-27T07:07:34.099Z,63.1
2018-07-27T07:08:34.228Z,63.13
2018-07-27T07:09:34.479Z,63.13
2018-07-27T07:10:34.012Z,63.18
2018-07-27T07:11:34.088Z,63.14
2018-07-27T07:12:34.271Z,63.18
2018-07-27T07:13:34.117Z,63.13
2018-07-27T07:14:35.681Z,63.16
2018-07-27T07:15:34.184Z,63.17
2018-07-27T07:16:34.051Z,63.23
2018-07-27T07:17:34.087Z,63.21
2018-07-27T07:18:34.232Z,63.24
2018-07-27T07:19:34.058Z,63.25
2018-07-27T07:20:34.174Z,63.2
2018-07-27T07:21:34.197Z,63.17
2018-07-27T07:22:34.008Z,63.19
2018-07-27T07:23:34.203Z,63.14
2018-07-27T07:24:34.171Z,63.12
2018-07-27T07:25:36.169Z,63.18
2018-07-27T07:26:34.203Z,63.14
2018-07-27T07:27:34.088Z,63.14
2018-07-27T07:28:33.984Z,63.16
2018-07-27T07:29:34.281Z,63.19
2018-07-27T07:30:34.227Z,63.22
2018-07-27T07:31:34.310Z,63.25
2018-07-27T07:32:34.190Z,63.23
2018-07-27T07:33:34.148Z,63.18
2018-07-27T07:34:34.016Z,63.23
2018-07-27T07:35:34.159Z,63.16
2018-07-27T07:36:34.396Z,63.12
2018-07-27T07:37:34.010Z,63.15
2018-07-27T07:38:34.092Z,63.32
2018-07-27T07:39:34.145Z,63.35
2018-07-27T07:40:34.153Z,63.25
2018-07-27T07:41:34.064Z,63.24
2018-07-27T07:42:34.370Z,63.19
2018-07-27T07:43:34.052Z,63.26
2018-07-27T07:44:34.221Z,63.25
2018-07-27T07:45:33.989Z,63.31
2018-07-27T07:46:34.311Z,63.32
2018-07-27T07:47:34.183Z,63.31
2018-07-27T07:48:34.133Z,63.26
2018-07-27T07:49:34.164Z,63.31
2018-07-27T07:50:34.179Z,63.25
2018-07-27T07:51:34.462Z,63.25
2018-07-27T07:52:34.047Z,63.29
2018-07-27T07:53:34.158Z,63.26
2018-07-27T07:54:34.121Z,63.25
2018-07-27T07:55:34.016Z,63.22
2018-07-27T07:56:34.127Z,63.23
2018-07-27T07:57:34.236Z,63.29
2018-07-27T07:58:35.001Z,63.32
2018-07-27T07:59:34.232Z,63.55
2018-07-27T08:00:34.187Z,63.57
2018-07-27T08:01:34.156Z,63.43
2018-07-27T08:02:34.121Z,63.43
2018-07-27T08:03:34.254Z,63.5
2018-07-27T08:04:33.999Z,63.49
2018-07-27T08:05:34.969Z,63.48
2018-07-27T08:06:34.374Z,63.43
2018-07-27T08:07:34.395Z,63.44
2018-07-27T08:08:34.314Z,63.44
2018-07-27T08:09:34.045Z,63.8
2018-07-27T08:10:34.242Z,63.66
2018-07-27T08:11:34.385Z,63.66
2018-07-27T08:12:34.236Z,63.63
2018-07-27T08:13:34.169Z,63.62
2018-07-27T08:14:34.245Z,63.54
2018-07-27T08:15:34.092Z,63.52
2018-07-27T08:16:34.183Z,63.45
2018-07-27T08:17:34.203Z,63.46
2018-07-27T08:18:34.249Z,63.38
2018-07-27T08:19:33.971Z,63.37
2018-07-27T08:20:34.104Z,63.38
2018-07-27T08:21:34.125Z,63.39
2018-07-27T08:22:33.957Z,63.44
2018-07-27T08:23:34.115Z,63.35
2018-07-27T08:24:34.273Z,63.37
2018-07-27T08:25:33.976Z,63.34
2018-07-27T08:26:34.249Z,63.37
2018-07-27T08:27:34.256Z,63.37
2018-07-27T08:28:34.034Z,63.37
2018-07-27T08:29:33.997Z,63.36
2018-07-27T08:30:34.218Z,63.39
2018-07-27T08:31:33.996Z,63.37
2018-07-27T08:32:34.011Z,63.35
2018-07-27T08:33:34.083Z,63.3
2018-07-27T08:34:34.032Z,63.32
2018-07-27T08:35:34.099Z,63.35
2018-07-27T08:36:34.042Z,63.34
2018-07-27T08:37:34.072Z,63.33
2018-07-27T08:38:34.011Z,63.32
2018-07-27T08:39:34.487Z,63.36
2018-07-27T08:40:34.002Z,63.33
2018-07-27T08:41:34.227Z,63.42
2018-07-27T08:42:34.129Z,63.63
2018-07-27T08:43:34.064Z,63.5
2018-07-27T08:44:34.258Z,63.51
2018-07-27T08:45:34.046Z,63.55
2018-07-27T08:46:34.246Z,63.67
2018-07-27T08:47:34.114Z,63.57
2018-07-27T08:48:34.080Z,63.78
2018-07-27T08:49:33.918Z,63.81
2018-07-27T08:50:34.019Z,63.73
2018-07-27T08:51:34.481Z,63.77
2018-07-27T08:52:34.143Z,63.75
2018-07-27T08:53:34.025Z,63.74
2018-07-27T08:54:34.107Z,63.78
2018-07-27T08:55:34.174Z,63.7
2018-07-27T08:56:34.147Z,63.72
2018-07-27T08:57:34.153Z,63.77
2018-07-27T08:58:33.971Z,63.79
2018-07-27T08:59:34.113Z,63.73
2018-07-27T09:00:34.029Z,63.75
2018-07-27T09:01:34.176Z,63.71
2018-07-27T09:02:33.990Z,63.8
2018-07-27T09:03:34.148Z,63.67
2018-07-27T09:04:34.073Z,63.69
2018-07-27T09:05:34.112Z,63.69
2018-07-27T09:06:34.045Z,63.67
2018-07-27T09:07:34.078Z,63.57
2018-07-27T09:08:34.155Z,63.63
2018-07-27T09:09:34.081Z,63.61
2018-07-27T09:10:09.641Z,64.82
2018-07-27T09:11:09.354Z,63.69
2018-07-27T09:12:19.178Z,63.61
2018-07-27T09:13:09.317Z,63.63
2018-07-27T09:14:09.252Z,63.75
2018-07-27T09:15:09.333Z,63.79
2018-07-27T09:16:09.436Z,63.7
2018-07-27T09:17:09.112Z,63.67
2018-07-27T09:18:09.432Z,63.76
2018-07-27T09:19:09.278Z,63.83
2018-07-27T09:20:09.364Z,63.63
2018-07-27T09:21:09.392Z,63.67
2018-07-27T09:22:09.222Z,63.81
2018-07-27T09:23:09.563Z,63.64
2018-07-27T09:24:10.223Z,63.74
2018-07-27T09:25:14.667Z,63.7
2018-07-27T09:26:09.368Z,63.68
2018-07-27T09:27:09.450Z,63.75
2018-07-27T09:28:09.421Z,63.74
2018-07-27T09:29:09.276Z,63.91
2018-07-27T09:30:09.067Z,63.76
2018-07-27T09:31:09.270Z,63.68
2018-07-27T09:32:09.411Z,63.66
2018-07-27T09:33:22.385Z,63.77
2018-07-27T09:34:22.715Z,63.66
2018-07-27T09:35:22.785Z,63.7
2018-07-27T09:36:18.665Z,63.76
2018-07-27T09:37:18.889Z,63.7
2018-07-27T09:38:18.701Z,63.81
2018-07-27T09:39:18.679Z,63.76
2018-07-27T09:40:18.758Z,63.8
2018-07-27T09:41:18.798Z,63.76
2018-07-27T09:42:18.847Z,63.8
2018-07-27T09:43:18.875Z,63.86
2018-07-27T09:44:18.693Z,63.86
2018-07-27T09:45:18.658Z,63.9
2018-07-27T09:46:18.674Z,63.93
2018-07-27T09:47:18.666Z,63.93
2018-07-27T09:48:18.776Z,63.87
2018-07-27T09:49:18.674Z,63.87
2018-07-27T09:50:18.793Z,63.84
2018-07-27T09:51:18.695Z,63.81
2018-07-27T09:52:18.794Z,63.77
2018-07-27T09:53:18.777Z,63.77
2018-07-27T09:54:18.717Z,63.81
2018-07-27T09:55:18.840Z,63.78
2018-07-27T09:56:18.604Z,63.77
2018-07-27T09:57:18.791Z,63.69
2018-07-27T09:58:18.767Z,63.68
2018-07-27T09:59:18.950Z,63.81
2018-07-27T10:00:18.732Z,63.66
2018-07-27T10:01:18.779Z,63.66
2018-07-27T10:02:18.702Z,63.62
2018-07-27T10:03:18.819Z,63.6
2018-07-27T10:04:18.823Z,63.53
2018-07-27T10:05:18.761Z,63.57
2018-07-27T10:06:02.754Z,65.08
2018-07-27T10:07:02.908Z,63.7
2018-07-27T10:08:02.597Z,63.54
2018-07-27T10:09:02.564Z,63.43
2018-07-27T10:10:02.714Z,63.37
2018-07-27T10:11:03.385Z,63.25
2018-07-27T10:12:02.799Z,63.27
2018-07-27T10:13:02.842Z,63.27
2018-07-27T10:14:02.818Z,63.2
2018-07-27T10:15:02.639Z,63.23
2018-07-27T10:16:02.760Z,63.22
2018-07-27T10:17:02.549Z,63.23
2018-07-27T10:18:02.725Z,63.23
2018-07-27T10:19:02.896Z,63.31
2018-07-27T10:20:02.736Z,63.27
2018-07-27T10:21:03.006Z,63.27
2018-07-27T10:22:02.744Z,63.29
2018-07-27T10:23:02.760Z,63.24
2018-07-27T10:24:03.563Z,63.29
2018-07-27T10:25:02.645Z,63.36
2018-07-27T10:26:12.626Z,63.24
2018-07-27T10:27:02.766Z,63.4
2018-07-27T10:28:02.992Z,63.31
2018-07-27T10:29:02.934Z,63.38
2018-07-27T10:30:02.700Z,63.47
2018-07-27T10:31:02.918Z,63.46
2018-07-27T10:32:02.668Z,63.46
2018-07-27T10:33:02.954Z,63.45
2018-07-27T10:34:02.853Z,63.48
2018-07-27T10:35:02.717Z,63.4
2018-07-27T10:36:02.820Z,63.43
2018-07-27T10:37:03.206Z,63.57
2018-07-27T10:38:03.042Z,63.6
2018-07-27T10:39:02.744Z,63.53
2018-07-27T10:40:02.926Z,63.6
2018-07-27T10:41:02.657Z,63.55
2018-07-27T10:42:02.788Z,63.52
2018-07-27T10:43:02.692Z,63.6
2018-07-27T10:44:02.711Z,63.56
2018-07-27T10:45:02.880Z,63.54
2018-07-27T10:46:02.662Z,63.63
2018-07-27T10:47:02.885Z,63.58
2018-07-27T10:48:03.054Z,63.63
2018-07-27T10:49:02.845Z,63.64
2018-07-27T10:50:02.545Z,63.64
2018-07-27T10:51:02.739Z,63.63
2018-07-27T10:52:02.754Z,63.59
2018-07-27T10:53:02.533Z,63.64
2018-07-27T10:54:02.927Z,63.61
2018-07-27T10:55:03.176Z,63.57
2018-07-27T10:56:02.757Z,63.61
2018-07-27T10:57:02.800Z,63.6
2018-07-27T10:58:02.586Z,63.57
2018-07-27T10:59:02.857Z,63.54
2018-07-27T11:00:02.799Z,63.57
2018-07-27T11:01:02.643Z,63.57
2018-07-27T11:02:02.552Z,63.54
2018-07-27T11:03:02.767Z,63.58
2018-07-27T11:04:02.679Z,63.54
2018-07-27T11:05:02.641Z,63.54
2018-07-27T11:06:02.469Z,63.57
2018-07-27T11:07:02.801Z,63.59
2018-07-27T11:08:02.759Z,63.57
2018-07-27T11:09:02.596Z,63.54
2018-07-27T11:10:02.774Z,63.53
2018-07-27T11:11:02.671Z,63.52
2018-07-27T11:12:02.707Z,63.53
2018-07-27T11:13:02.705Z,63.57
2018-07-27T11:14:02.727Z,63.6
2018-07-27T11:15:02.572Z,63.6
2018-07-27T11:16:02.835Z,63.55
2018-07-27T11:17:02.690Z,63.53
2018-07-27T11:18:02.672Z,63.55
2018-07-27T11:19:02.708Z,63.64
2018-07-27T11:20:03.031Z,63.72
2018-07-27T11:21:02.682Z,63.69
2018-07-27T11:22:02.725Z,63.6
2018-07-27T11:23:03.078Z,63.56
2018-07-27T11:24:02.678Z,63.58
2018-07-27T11:25:02.857Z,63.55
2018-07-27T11:26:02.691Z,63.48
2018-07-27T11:27:02.740Z,63.46
2018-07-27T11:28:02.725Z,63.44
2018-07-27T11:29:02.937Z,63.4
2018-07-27T11:30:02.802Z,63.38
2018-07-27T11:31:03.512Z,63.4
2018-07-27T11:32:02.672Z,63.32
2018-07-27T11:33:02.705Z,63.32
2018-07-27T11:34:03.060Z,63.33
2018-07-27T11:35:02.972Z,63.33
2018-07-27T11:36:02.733Z,63.34
2018-07-27T11:37:04.059Z,63.37
2018-07-27T11:38:02.656Z,63.41
2018-07-27T11:39:02.801Z,63.36
2018-07-27T11:40:02.692Z,63.38
2018-07-27T11:41:02.743Z,63.42
2018-07-27T11:42:02.839Z,63.56
2018-07-27T11:43:02.672Z,63.45
2018-07-27T11:44:02.890Z,63.57
2018-07-27T11:45:02.825Z,63.5
2018-07-27T11:46:02.546Z,63.58
2018-07-27T11:47:02.613Z,63.57
2018-07-27T11:48:02.620Z,63.55
2018-07-27T11:49:02.997Z,63.56
2018-07-27T11:50:02.694Z,63.57
2018-07-27T11:51:02.780Z,63.57
2018-07-27T11:52:02.825Z,63.61
2018-07-27T11:53:02.849Z,63.48
2018-07-27T11:54:02.778Z,63.54
2018-07-27T11:55:02.997Z,63.53
2018-07-27T11:56:02.630Z,63.55
2018-07-27T11:57:03.222Z,63.57
2018-07-27T11:58:02.672Z,63.5
2018-07-27T11:59:02.757Z,63.55
2018-07-27T12:00:02.789Z,63.49
2018-07-27T12:01:02.700Z,63.54
2018-07-27T12:02:02.792Z,63.71
2018-07-27T12:03:02.615Z,63.81
2018-07-27T12:04:02.795Z,63.76
2018-07-27T12:05:02.745Z,63.7
2018-07-27T12:06:02.938Z,63.62
2018-07-27T12:07:04.143Z,63.63
2018-07-27T12:08:03.068Z,63.65
2018-07-27T12:09:03.367Z,63.61
2018-07-27T12:10:02.881Z,63.62
2018-07-27T12:11:02.857Z,63.61
2018-07-27T12:12:02.767Z,63.59
2018-07-27T12:13:02.748Z,63.6
2018-07-27T12:14:15.214Z,63.7
2018-07-27T12:15:06.701Z,63.71
2018-07-27T12:16:02.837Z,63.77
2018-07-27T12:17:02.667Z,63.78
2018-07-27T12:18:02.749Z,63.72
2018-07-27T12:19:02.711Z,63.65
2018-07-27T12:20:02.691Z,63.71
2018-07-27T12:21:05.215Z,63.63
2018-07-27T12:22:02.711Z,63.68
2018-07-27T12:23:02.757Z,63.61
2018-07-27T12:24:02.713Z,63.65
2018-07-27T12:25:02.770Z,63.66
2018-07-27T12:26:02.799Z,63.65
2018-07-27T12:27:03.567Z,63.6
2018-07-27T12:28:03.067Z,63.63
2018-07-27T12:29:02.834Z,63.64
2018-07-27T12:30:02.683Z,63.71
2018-07-27T12:31:02.900Z,63.66
2018-07-27T12:32:02.836Z,63.63
2018-07-27T12:33:02.837Z,63.59
2018-07-27T12:34:02.734Z,63.58
2018-07-27T12:35:02.655Z,64.06
2018-07-27T12:36:02.830Z,63.84
2018-07-27T12:37:02.909Z,63.81
2018-07-27T12:38:03.077Z,64.21
2018-07-27T12:39:03.976Z,64.58
2018-07-27T12:40:02.837Z,64.4
2018-07-27T12:41:03.687Z,64.43
2018-07-27T12:42:02.795Z,64.22
2018-07-27T12:43:02.591Z,64.14
2018-07-27T12:44:02.663Z,64.12
2018-07-27T12:45:03.864Z,64.05
2018-07-27T12:46:02.856Z,63.94
2018-07-27T12:47:02.782Z,63.9
2018-07-27T12:48:02.592Z,64.08
2018-07-27T12:49:02.938Z,63.82
2018-07-27T12:50:02.720Z,64.06
2018-07-27T12:51:03.166Z,64.07
2018-07-27T12:52:03.216Z,64.09
2018-07-27T12:53:02.961Z,64.12
2018-07-27T12:54:02.865Z,64.05
2018-07-27T12:55:02.719Z,63.99